createdAt,value
2023-01-07T00:01:31.206Z,7.61
2023-01-07T00:04:00.435Z,7.60
2023-01-07T00:06:33.653Z,7.63
2023-01-07T00:09:02.479Z,7.61
2023-01-07T00:11:32.508Z,7.59
2023-01-07T00:14:01.154Z,7.51
2023-01-07T00:16:30.566Z,7.48
2023-01-07T00:19:00.449Z,7.49
2023-01-07T00:21:29.206Z,7.50
2023-01-07T00:23:59.983Z,7.50
2023-01-07T00:26:31.273Z,7.47
2023-01-07T00:29:00.097Z,7.46
2023-01-07T00:31:30.821Z,7.43
2023-01-07T00:33:59.368Z,7.40
2023-01-07T00:36:29.384Z,7.40
2023-01-07T00:39:11.714Z,7.41
2023-01-07T00:42:06.066Z,7.43
2023-01-07T00:44:34.133Z,7.46
2023-01-07T00:47:02.039Z,7.51
2023-01-07T00:49:32.732Z,7.54
2023-01-07T00:52:00.632Z,7.58
2023-01-07T00:54:28.597Z,7.60
2023-01-07T00:56:56.534Z,7.62
2023-01-07T00:59:24.631Z,7.62
2023-01-07T01:01:52.729Z,7.62
2023-01-07T01:04:20.605Z,7.61
2023-01-07T01:06:48.403Z,7.57
2023-01-07T01:09:16.170Z,7.54
2023-01-07T01:11:44.841Z,7.55
2023-01-07T01:14:12.681Z,7.56
2023-01-07T01:16:40.519Z,7.57
2023-01-07T01:19:08.407Z,7.60
2023-01-07T01:21:36.355Z,7.61
2023-01-07T01:24:04.434Z,7.62
2023-01-07T01:26:32.391Z,7.62
2023-01-07T01:29:00.157Z,7.63
2023-01-07T01:31:28.527Z,7.63
2023-01-07T01:33:56.814Z,7.63
2023-01-07T01:36:25.421Z,7.64
2023-01-07T01:38:56.672Z,7.63
2023-01-07T01:41:24.573Z,7.62
2023-01-07T01:43:53.285Z,7.61
2023-01-07T01:46:24.486Z,7.58
2023-01-07T01:48:57.052Z,7.47
2023-01-07T01:51:26.711Z,7.37
2023-01-07T01:53:55.731Z,7.32
2023-01-07T01:56:32.571Z,7.31
2023-01-07T01:59:04.676Z,7.32
2023-01-07T02:01:34.777Z,7.31
2023-01-07T02:04:10.202Z,7.32
2023-01-07T02:06:52.093Z,7.31
2023-01-07T02:10:10.429Z,7.30
2023-01-07T02:12:47.675Z,7.31
2023-01-07T02:15:25.207Z,7.28
2023-01-07T02:18:28.458Z,7.25
2023-01-07T02:21:35.525Z,7.22
2023-01-07T02:24:06.241Z,7.21
2023-01-07T02:26:54.271Z,7.17
2023-01-07T02:29:25.199Z,7.16
2023-01-07T02:32:21.735Z,7.12
2023-01-07T02:35:13.951Z,7.14
2023-01-07T02:38:00.744Z,7.13
2023-01-07T02:40:43.270Z,7.12
2023-01-07T02:43:45.360Z,7.16
2023-01-07T02:46:30.367Z,7.21
2023-01-07T02:49:00.515Z,7.19
2023-01-07T02:51:35.557Z,7.16
2023-01-07T02:54:04.032Z,7.09
2023-01-07T02:56:52.043Z,6.99
2023-01-07T02:59:29.134Z,6.85
2023-01-07T03:02:21.212Z,6.77
2023-01-07T03:04:54.998Z,6.72
2023-01-07T03:07:48.836Z,6.66
2023-01-07T03:10:22.490Z,6.60
2023-01-07T03:13:02.729Z,6.57
2023-01-07T03:15:50.901Z,6.54
2023-01-07T03:18:22.712Z,6.52
2023-01-07T03:20:54.948Z,6.48
2023-01-07T03:23:23.049Z,6.44
2023-01-07T03:25:52.035Z,6.39
2023-01-07T03:28:24.453Z,6.34
2023-01-07T03:30:53.841Z,6.25
2023-01-07T03:33:26.378Z,6.16
2023-01-07T03:35:56.005Z,6.11
2023-01-07T03:38:24.857Z,6.03
2023-01-07T03:40:53.046Z,5.97
2023-01-07T03:43:23.154Z,5.97
2023-01-07T03:45:52.420Z,5.97
2023-01-07T03:48:20.752Z,5.96
2023-01-07T03:50:49.477Z,5.87
2023-01-07T03:53:17.832Z,5.82
2023-01-07T03:55:47.325Z,5.78
2023-01-07T03:58:15.060Z,5.69
2023-01-07T04:00:42.960Z,5.59
2023-01-07T04:03:14.594Z,5.51
2023-01-07T04:05:44.575Z,5.44
2023-01-07T04:08:14.208Z,5.40
2023-01-07T04:10:43.892Z,5.39
2023-01-07T04:13:12.798Z,5.37
2023-01-07T04:15:42.547Z,5.36
2023-01-07T04:18:13.278Z,5.36
2023-01-07T04:20:41.130Z,5.39
2023-01-07T04:23:09.294Z,5.41
2023-01-07T04:25:37.096Z,5.41
2023-01-07T04:28:05.449Z,5.44
2023-01-07T04:30:35.882Z,5.49
2023-01-07T04:33:05.719Z,5.48
2023-01-07T04:35:34.238Z,5.48
2023-01-07T04:38:02.912Z,5.39
2023-01-07T04:40:30.809Z,5.22
2023-01-07T04:42:59.535Z,5.11
2023-01-07T04:45:27.559Z,5.10
2023-01-07T04:47:56.558Z,5.09
2023-01-07T04:50:24.702Z,5.05
2023-01-07T04:52:53.045Z,5.04
2023-01-07T04:55:20.818Z,5.05
2023-01-07T04:57:49.321Z,5.09
2023-01-07T05:00:18.192Z,5.15
2023-01-07T05:02:47.293Z,5.22
2023-01-07T05:05:15.373Z,5.29
2023-01-07T05:07:44.624Z,5.35
2023-01-07T05:10:13.547Z,5.39
2023-01-07T05:12:41.672Z,5.38
2023-01-07T05:15:11.361Z,5.38
2023-01-07T05:17:40.786Z,5.44
2023-01-07T05:20:09.179Z,5.54
2023-01-07T05:22:37.590Z,5.65
2023-01-07T05:25:06.381Z,5.72
2023-01-07T05:27:34.167Z,5.80
2023-01-07T05:30:03.728Z,5.86
2023-01-07T05:32:31.518Z,5.90
2023-01-07T05:34:59.303Z,5.97
2023-01-07T05:37:27.062Z,6.02
2023-01-07T05:39:55.979Z,6.04
2023-01-07T05:42:23.770Z,6.09
2023-01-07T05:44:51.783Z,6.13
2023-01-07T05:47:19.512Z,6.15
2023-01-07T05:49:47.493Z,6.22
2023-01-07T05:52:15.304Z,6.29
2023-01-07T05:54:43.142Z,6.30
2023-01-07T05:57:11.345Z,6.32
2023-01-07T05:59:39.076Z,6.36
2023-01-07T06:02:06.892Z,6.39
2023-01-07T06:04:34.681Z,6.42
2023-01-07T06:07:02.501Z,6.41
2023-01-07T06:09:30.226Z,6.38
2023-01-07T06:11:58.008Z,6.37
2023-01-07T06:14:25.714Z,6.41
2023-01-07T06:16:53.476Z,6.46
2023-01-07T06:19:23.029Z,6.53
2023-01-07T06:21:50.872Z,6.61
2023-01-07T06:24:18.625Z,6.66
2023-01-07T06:26:46.416Z,6.71
2023-01-07T06:29:14.320Z,6.76
2023-01-07T06:31:42.038Z,6.79
2023-01-07T06:34:10.079Z,6.80
2023-01-07T06:36:37.844Z,6.80
2023-01-07T06:39:05.672Z,6.80
2023-01-07T06:41:33.443Z,6.81
2023-01-07T06:44:01.417Z,6.79
2023-01-07T06:46:29.459Z,6.79
2023-01-07T06:48:57.465Z,6.75
2023-01-07T06:51:25.211Z,6.77
2023-01-07T06:53:52.944Z,6.81
2023-01-07T06:56:21.011Z,6.85
2023-01-07T06:58:48.738Z,6.89
2023-01-07T07:01:16.541Z,6.91
2023-01-07T07:03:44.548Z,6.95
2023-01-07T07:06:12.359Z,6.96
2023-01-07T07:08:40.138Z,6.98
2023-01-07T07:11:07.944Z,6.99
2023-01-07T07:13:36.111Z,7.01
2023-01-07T07:16:04.273Z,7.03
2023-01-07T07:18:32.619Z,7.07
2023-01-07T07:21:00.495Z,7.09
2023-01-07T07:23:28.299Z,7.10
2023-01-07T07:25:56.058Z,7.09
2023-01-07T07:28:23.850Z,7.08
2023-01-07T07:30:51.673Z,7.06
2023-01-07T07:33:19.851Z,7.08
2023-01-07T07:35:48.242Z,7.11
2023-01-07T07:38:17.709Z,7.13
2023-01-07T07:40:46.506Z,7.18
2023-01-07T07:43:15.046Z,7.25
2023-01-07T07:45:43.233Z,7.31
2023-01-07T07:48:13.475Z,7.37
2023-01-07T07:50:41.551Z,7.38
2023-01-07T07:53:10.641Z,7.39
2023-01-07T07:55:39.074Z,7.39
2023-01-07T07:58:06.884Z,7.41
2023-01-07T08:00:34.809Z,7.39
2023-01-07T08:03:02.992Z,7.41
2023-01-07T08:05:31.273Z,7.45
2023-01-07T08:07:59.306Z,7.47
2023-01-07T08:10:27.913Z,7.47
2023-01-07T08:12:55.782Z,7.47
2023-01-07T08:15:23.579Z,7.45
2023-01-07T08:18:02.728Z,7.46
2023-01-07T08:20:31.006Z,7.45
2023-01-07T08:23:00.589Z,7.39
2023-01-07T08:25:29.848Z,7.42
2023-01-07T08:27:59.092Z,7.46
2023-01-07T08:30:28.022Z,7.48
2023-01-07T08:32:56.360Z,7.54
2023-01-07T08:35:24.320Z,7.61
2023-01-07T08:37:52.144Z,7.69
2023-01-07T08:40:19.883Z,7.74
2023-01-07T08:42:47.700Z,7.79
2023-01-07T08:45:15.623Z,7.83
2023-01-07T08:47:47.670Z,7.86
2023-01-07T08:50:15.450Z,7.89
2023-01-07T08:52:46.575Z,7.91
2023-01-07T08:55:14.455Z,7.95
2023-01-07T08:57:42.211Z,8.03
2023-01-07T09:00:10.678Z,8.10
2023-01-07T09:02:38.501Z,8.14
2023-01-07T09:05:07.084Z,8.20
2023-01-07T09:07:35.138Z,8.31
2023-01-07T09:10:03.918Z,8.37
2023-01-07T09:12:31.742Z,8.52
2023-01-07T09:14:59.567Z,8.67
2023-01-07T09:17:28.015Z,8.79
2023-01-07T09:19:55.756Z,8.92
2023-01-07T09:22:23.667Z,9.02
2023-01-07T09:24:51.439Z,9.18
2023-01-07T09:27:19.220Z,9.49
2023-01-07T09:29:46.947Z,9.69
2023-01-07T09:32:14.777Z,9.76
2023-01-07T09:34:42.472Z,9.71
2023-01-07T09:37:10.197Z,9.65
2023-01-07T09:39:37.987Z,9.60
2023-01-07T09:42:13.696Z,9.62
2023-01-07T09:45:01.414Z,9.65
2023-01-07T09:47:29.710Z,9.71
2023-01-07T09:50:02.256Z,9.80
2023-01-07T09:52:44.433Z,9.93
2023-01-07T09:55:19.972Z,10.05
2023-01-07T09:57:48.416Z,10.45
2023-01-07T10:00:22.669Z,10.86
2023-01-07T10:03:06.485Z,11.35
2023-01-07T10:05:37.021Z,11.94
2023-01-07T10:08:32.164Z,12.46
2023-01-07T10:11:03.109Z,12.55
2023-01-07T10:13:49.188Z,12.40
2023-01-07T10:16:45.906Z,12.12
2023-01-07T10:19:19.768Z,11.83
2023-01-07T10:21:54.004Z,11.56
2023-01-07T10:24:27.844Z,11.32
2023-01-07T10:26:58.821Z,11.04
2023-01-07T10:29:32.791Z,10.90
2023-01-07T10:32:10.640Z,10.93
2023-01-07T10:34:46.244Z,10.86
2023-01-07T10:37:33.783Z,10.81
2023-01-07T10:40:23.108Z,10.78
2023-01-07T10:42:54.535Z,10.75
2023-01-07T10:45:50.117Z,10.72
2023-01-07T10:48:39.812Z,10.71
2023-01-07T10:51:23.374Z,10.67
2023-01-07T10:54:06.546Z,10.63
2023-01-07T10:56:47.000Z,10.61
2023-01-07T10:59:17.774Z,10.58
2023-01-07T11:01:49.067Z,10.57
2023-01-07T11:04:17.622Z,10.56
2023-01-07T11:06:57.565Z,10.51
2023-01-07T11:09:35.618Z,10.51
2023-01-07T11:12:21.563Z,10.52
2023-01-07T11:14:49.664Z,10.49
2023-01-07T11:17:36.396Z,10.49
2023-01-07T11:20:05.378Z,10.53
2023-01-07T11:22:35.763Z,10.58
2023-01-07T11:25:28.165Z,10.63
2023-01-07T11:28:01.094Z,10.69
2023-01-07T11:30:29.656Z,10.74
2023-01-07T11:33:07.125Z,10.74
2023-01-07T11:35:35.111Z,10.77
2023-01-07T11:38:03.056Z,10.75
2023-01-07T11:40:32.502Z,10.74
2023-01-07T11:43:01.578Z,10.77
2023-01-07T11:45:38.531Z,10.80
2023-01-07T11:48:08.732Z,10.84
2023-01-07T11:50:37.518Z,10.89
2023-01-07T11:53:14.569Z,10.93
2023-01-07T11:56:00.041Z,10.99
2023-01-07T11:58:33.938Z,11.06
2023-01-07T12:01:07.592Z,11.19
2023-01-07T12:03:46.151Z,11.33
2023-01-07T12:06:19.364Z,11.48
2023-01-07T12:09:27.244Z,11.76
2023-01-07T12:11:57.590Z,12.17
2023-01-07T12:14:31.447Z,12.69
2023-01-07T12:17:16.399Z,12.95
2023-01-07T12:20:06.210Z,13.03
2023-01-07T12:22:40.172Z,13.21
2023-01-07T12:25:34.648Z,13.33
2023-01-07T12:28:46.961Z,13.69
2023-01-07T12:31:39.882Z,14.30
2023-01-07T12:34:25.728Z,14.79
2023-01-07T12:37:12.630Z,15.31
2023-01-07T12:39:44.092Z,15.78
2023-01-07T12:44:56.941Z,16.56
2023-01-07T12:47:31.322Z,16.46
2023-01-07T12:50:06.934Z,16.30
2023-01-07T12:53:00.740Z,16.52
2023-01-07T12:55:35.713Z,16.82
2023-01-07T12:58:26.016Z,17.06
2023-01-07T13:01:05.269Z,17.31
2023-01-07T13:03:45.405Z,17.36
2023-01-07T13:06:34.566Z,17.44
2023-01-07T13:09:09.790Z,17.62
2023-01-07T13:12:01.134Z,17.72
2023-01-07T13:14:37.389Z,17.55
2023-01-07T13:17:24.747Z,17.26
2023-01-07T13:19:53.795Z,17.23
2023-01-07T13:22:30.783Z,17.27
2023-01-07T13:25:17.837Z,17.53
2023-01-07T13:28:19.330Z,17.77
2023-01-07T13:31:29.856Z,18.06
2023-01-07T13:34:42.139Z,18.42
2023-01-07T13:37:31.444Z,18.62
2023-01-07T13:40:06.266Z,18.82
2023-01-07T13:42:43.219Z,18.91
2023-01-07T13:45:25.100Z,19.00
2023-01-07T13:47:58.587Z,18.76
2023-01-07T13:50:39.519Z,18.24
2023-01-07T13:53:27.396Z,17.75
2023-01-07T13:56:17.844Z,17.39
2023-01-07T13:58:56.302Z,17.39
2023-01-07T14:01:34.959Z,17.18
2023-01-07T14:04:09.089Z,16.78
2023-01-07T14:06:40.013Z,16.86
2023-01-07T14:09:07.761Z,16.79
2023-01-07T14:11:36.187Z,16.55
2023-01-07T14:14:13.118Z,16.04
2023-01-07T14:16:43.184Z,15.68
2023-01-07T14:19:16.743Z,15.47
2023-01-07T14:22:01.528Z,15.13
2023-01-07T14:24:41.633Z,14.79
2023-01-07T14:27:30.513Z,14.53
2023-01-07T14:30:15.970Z,14.33
2023-01-07T14:32:44.883Z,14.65
2023-01-07T14:35:12.934Z,15.15
2023-01-07T14:37:45.223Z,15.27
2023-01-07T14:40:34.595Z,15.24
2023-01-07T14:43:03.734Z,15.04
2023-01-07T14:45:38.322Z,14.73
2023-01-07T14:48:08.829Z,14.32
2023-01-07T14:50:42.421Z,13.92
2023-01-07T14:53:16.154Z,13.57
2023-01-07T14:55:57.037Z,13.23
2023-01-07T14:58:39.924Z,12.95
2023-01-07T15:01:26.712Z,12.69
2023-01-07T15:04:18.067Z,12.44
2023-01-07T15:06:46.449Z,12.23
2023-01-07T15:09:36.666Z,12.03
2023-01-07T15:12:26.513Z,11.79
2023-01-07T15:15:22.815Z,11.60
2023-01-07T15:17:50.641Z,11.40
2023-01-07T15:20:18.452Z,11.26
2023-01-07T15:23:10.875Z,11.11
2023-01-07T15:26:05.690Z,10.98
2023-01-07T15:28:46.115Z,10.83
2023-01-07T15:31:36.126Z,10.71
2023-01-07T15:34:08.867Z,10.60
2023-01-07T15:36:45.520Z,10.49
2023-01-07T15:39:22.633Z,10.41
2023-01-07T15:41:53.155Z,10.30
2023-01-07T15:44:22.353Z,10.20
2023-01-07T15:46:50.347Z,10.11
2023-01-07T15:49:23.995Z,10.04
2023-01-07T15:51:59.714Z,9.94
2023-01-07T15:54:34.864Z,9.80
2023-01-07T15:57:04.696Z,9.70
2023-01-07T15:59:35.695Z,9.64
2023-01-07T16:02:24.231Z,9.57
2023-01-07T16:04:55.185Z,9.50
2023-01-07T16:07:43.186Z,9.45
2023-01-07T16:10:22.147Z,9.41
2023-01-07T16:12:52.548Z,9.35
2023-01-07T16:15:21.659Z,9.30
2023-01-07T16:17:51.330Z,9.25
2023-01-07T16:20:29.400Z,9.21
2023-01-07T16:23:27.066Z,9.18
2023-01-07T16:26:10.595Z,9.16
2023-01-07T16:28:41.960Z,9.14
2023-01-07T16:31:13.159Z,9.14
2023-01-07T16:33:42.488Z,9.14
2023-01-07T16:36:19.611Z,9.12
2023-01-07T16:38:52.185Z,9.08
2023-01-07T16:41:23.511Z,9.01
2023-01-07T16:43:54.157Z,8.95
2023-01-07T16:46:29.760Z,8.89
2023-01-07T16:49:30.205Z,8.83
2023-01-07T16:52:04.128Z,8.76
2023-01-07T16:54:37.355Z,8.72
2023-01-07T16:57:11.709Z,8.67
2023-01-07T16:59:45.843Z,8.62
2023-01-07T17:02:28.887Z,8.55
2023-01-07T17:05:12.849Z,8.40
2023-01-07T17:07:41.494Z,8.27
2023-01-07T17:10:28.037Z,8.19
2023-01-07T17:12:59.472Z,8.07
2023-01-07T17:15:33.745Z,8.00
2023-01-07T17:18:14.515Z,7.92
2023-01-07T17:20:53.264Z,7.87
2023-01-07T17:23:27.549Z,7.82
2023-01-07T17:26:07.809Z,7.68
2023-01-07T17:28:43.311Z,7.58
2023-01-07T17:31:11.292Z,7.54
2023-01-07T17:33:39.690Z,7.47
2023-01-07T17:36:15.024Z,7.45
2023-01-07T17:38:43.704Z,7.43
2023-01-07T17:41:33.229Z,7.42
2023-01-07T17:44:01.869Z,7.40
2023-01-07T17:46:32.613Z,7.40
2023-01-07T17:49:03.661Z,7.40
2023-01-07T17:51:33.053Z,7.42
2023-01-07T17:54:01.012Z,7.44
2023-01-07T17:56:29.263Z,7.43
2023-01-07T17:58:57.090Z,7.42
2023-01-07T18:01:25.993Z,7.39
2023-01-07T18:03:54.365Z,7.37
2023-01-07T18:06:24.653Z,7.35
2023-01-07T18:08:53.449Z,7.32
2023-01-07T18:11:43.585Z,7.34
2023-01-07T18:14:15.517Z,7.36
2023-01-07T18:16:43.401Z,7.39
2023-01-07T18:19:14.884Z,7.36
2023-01-07T18:21:43.139Z,7.34
2023-01-07T18:24:18.579Z,7.31
2023-01-07T18:26:47.123Z,7.33
2023-01-07T18:29:15.019Z,7.34
2023-01-07T18:31:44.097Z,7.31
2023-01-07T18:34:13.672Z,7.31
2023-01-07T18:36:41.782Z,7.31
2023-01-07T18:39:10.773Z,7.33
2023-01-07T18:41:39.723Z,7.34
2023-01-07T18:44:07.570Z,7.41
2023-01-07T18:46:35.336Z,7.46
2023-01-07T18:49:03.158Z,7.51
2023-01-07T18:51:30.886Z,7.54
2023-01-07T18:53:58.901Z,7.54
2023-01-07T18:56:26.736Z,7.52
2023-01-07T18:58:55.188Z,7.47
2023-01-07T19:01:23.429Z,7.42
2023-01-07T19:03:51.625Z,7.39
2023-01-07T19:06:19.611Z,7.32
2023-01-07T19:08:47.320Z,7.33
2023-01-07T19:11:22.257Z,7.29
2023-01-07T19:13:50.104Z,7.27
2023-01-07T19:16:18.223Z,7.24
2023-01-07T19:18:46.411Z,7.24
2023-01-07T19:21:14.798Z,7.23
2023-01-07T19:23:42.805Z,7.16
2023-01-07T19:26:11.530Z,7.09
2023-01-07T19:28:39.304Z,7.03
2023-01-07T19:31:08.462Z,6.93
2023-01-07T19:33:36.889Z,6.89
2023-01-07T19:36:09.021Z,6.90
2023-01-07T19:38:42.248Z,6.91
2023-01-07T19:41:16.914Z,6.92
2023-01-07T19:43:46.424Z,6.91
2023-01-07T19:46:21.114Z,6.95
2023-01-07T19:48:49.531Z,6.95
2023-01-07T19:51:17.329Z,6.93
2023-01-07T19:53:45.162Z,6.90
2023-01-07T19:56:12.997Z,6.88
2023-01-07T19:58:42.102Z,6.88
2023-01-07T20:01:15.824Z,6.91
2023-01-07T20:03:44.392Z,6.92
2023-01-07T20:06:14.581Z,6.89
2023-01-07T20:08:42.439Z,6.87
2023-01-07T20:11:10.689Z,6.86
2023-01-07T20:13:39.435Z,6.78
2023-01-07T20:16:09.575Z,6.69
2023-01-07T20:18:39.003Z,6.62
2023-01-07T20:21:07.661Z,6.57
2023-01-07T20:23:38.874Z,6.52
2023-01-07T20:26:12.021Z,6.48
2023-01-07T20:28:41.051Z,6.48
2023-01-07T20:31:11.498Z,6.42
2023-01-07T20:33:40.690Z,6.38
2023-01-07T20:36:10.795Z,6.40
2023-01-07T20:38:39.206Z,6.39
2023-01-07T20:41:08.358Z,6.35
2023-01-07T20:43:37.187Z,6.33
2023-01-07T20:46:07.914Z,6.30
2023-01-07T20:48:35.944Z,6.29
2023-01-07T20:51:08.736Z,6.28
2023-01-07T20:53:36.693Z,6.25
2023-01-07T20:56:05.333Z,6.25
2023-01-07T20:58:35.193Z,6.21
2023-01-07T21:01:07.913Z,6.17
2023-01-07T21:03:35.965Z,6.11
2023-01-07T21:06:04.308Z,6.07
2023-01-07T21:08:32.000Z,6.02
2023-01-07T21:10:59.776Z,6.02
2023-01-07T21:13:27.597Z,6.03
2023-01-07T21:16:02.723Z,6.02
2023-01-07T21:18:31.894Z,6.02
2023-01-07T21:21:00.922Z,5.99
2023-01-07T21:23:29.077Z,5.93
2023-01-07T21:25:57.124Z,5.91
2023-01-07T21:28:25.882Z,5.87
2023-01-07T21:30:53.704Z,5.85
2023-01-07T21:33:21.442Z,5.80
2023-01-07T21:35:49.167Z,5.76
2023-01-07T21:38:17.320Z,5.74
2023-01-07T21:40:47.116Z,5.73
2023-01-07T21:43:14.816Z,5.74
2023-01-07T21:45:42.813Z,5.75
2023-01-07T21:48:10.684Z,5.74
2023-01-07T21:50:38.713Z,5.72
2023-01-07T21:53:06.584Z,5.68
2023-01-07T21:55:37.862Z,5.68
2023-01-07T21:58:05.650Z,5.72
2023-01-07T22:00:33.411Z,5.71
2023-01-07T22:03:01.403Z,5.66
2023-01-07T22:05:29.493Z,5.61
2023-01-07T22:07:57.206Z,5.57
2023-01-07T22:10:25.066Z,5.51
2023-01-07T22:12:52.927Z,5.46
2023-01-07T22:19:40.962Z,5.44
2023-01-07T22:22:12.047Z,5.46
2023-01-07T22:24:44.176Z,5.44
2023-01-07T22:27:13.174Z,5.42
2023-01-07T22:29:46.956Z,5.38
2023-01-07T22:32:23.116Z,5.40
2023-01-07T22:34:52.143Z,5.42
2023-01-07T22:37:21.861Z,5.39
2023-01-07T22:39:57.976Z,5.38
2023-01-07T22:42:33.796Z,5.36
2023-01-07T22:45:10.005Z,5.35
2023-01-07T22:47:41.935Z,5.34
2023-01-07T22:50:11.331Z,5.34
2023-01-07T22:52:40.245Z,5.30
2023-01-07T22:55:09.504Z,5.31
2023-01-07T22:57:39.513Z,5.27
2023-01-07T23:00:16.482Z,5.26
2023-01-07T23:02:45.490Z,5.27
2023-01-07T23:05:14.603Z,5.29
2023-01-07T23:07:43.354Z,5.31
2023-01-07T23:10:12.286Z,5.35
2023-01-07T23:12:41.061Z,5.37
2023-01-07T23:15:10.391Z,5.34
2023-01-07T23:17:39.342Z,5.33
2023-01-07T23:20:08.953Z,5.34
2023-01-07T23:22:38.052Z,5.34
2023-01-07T23:25:07.059Z,5.37
2023-01-07T23:27:34.907Z,5.34
2023-01-07T23:30:02.849Z,5.33
2023-01-07T23:32:30.717Z,5.28
2023-01-07T23:34:58.432Z,5.18
2023-01-07T23:37:26.404Z,5.10
2023-01-07T23:39:54.105Z,5.05
2023-01-07T23:42:22.075Z,5.02
2023-01-07T23:44:49.851Z,5.06
2023-01-07T23:47:17.573Z,5.12
2023-01-07T23:49:45.332Z,5.17
2023-01-07T23:52:13.103Z,5.20
2023-01-07T23:54:41.175Z,5.21
2023-01-07T23:57:09.269Z,5.23
2023-01-07T23:59:37.844Z,5.20
